^^
B2 Weather Station Historical Data
Daily Summary for December 4, 2017 Units:  Both    English   Metric
Daily Weekly Monthly Yearly Custom
  High: Low: Average:
Temperature: 63.6 °F /  17.6 °C 46.9 °F /  8.3 °C 56.8 °F /  13.8 °C
Dew Point: 56.1 °F /  13.4 °C 37.6 °F /  3.1 °C 46.3 °F /  7.9 °C
Humidity: 88% 59% 68%
Wind Speed: 33.4mph /  53.8km/h - 17.5mph /  28.2km/h
Wind Gust: 33.4mph /  53.8km/h - -
Wind- - South
Pressure: 30.02 in /  1016.5 hPa 29.56 in /  1000.9 hPa -
Precipitation: 0.03 in /  0.76 mm    
Historical Graphs
 
 
Tabular Data for December 4, 2017
Time Temperature Dew Point Pressure Wind Wind Speed Wind Gust Humidity Rainfall Rate (Hourly) solar
00:01 48.4 °F /  9.1 °C 37.6 °F /  3.1 °C 30.02in /  1016.5hPa SSE 12.7mph /  20.4km/h 12.7mph /  20.4km/h 66% 0.00in /  0mm 0.0 W/m2
00:06 48.5 °F /  9.2 °C 38.0 °F /  3.3 °C 30.02in /  1016.5hPa SSE 10.4mph /  16.7km/h 10.4mph /  16.7km/h 67% 0.00in /  0mm 0.0 W/m2
00:11 48.6 °F /  9.2 °C 37.7 °F /  3.2 °C 30.02in /  1016.5hPa SSE 11.5mph /  18.5km/h 11.5mph /  18.5km/h 66% 0.00in /  0mm 0.0 W/m2
00:16 48.7 °F /  9.3 °C 37.8 °F /  3.2 °C 30.02in /  1016.5hPa SSE 11.5mph /  18.5km/h 11.5mph /  18.5km/h 66% 0.00in /  0mm 0.0 W/m2
00:21 48.8 °F /  9.3 °C 37.9 °F /  3.3 °C 30.02in /  1016.5hPa SSE 11.5mph /  18.5km/h 11.5mph /  18.5km/h 66% 0.00in /  0mm 0.0 W/m2
00:26 48.8 °F /  9.3 °C 37.9 °F /  3.3 °C 30.01in /  1016.1hPa SSE 11.0mph /  17.7km/h 11.0mph /  17.7km/h 66% 0.00in /  0mm 0.0 W/m2
00:31 48.8 °F /  9.3 °C 37.9 °F /  3.3 °C 30.01in /  1016.1hPa SSE 12.7mph /  20.4km/h 12.7mph /  20.4km/h 66% 0.00in /  0mm 0.0 W/m2
00:36 48.9 °F /  9.4 °C 38.0 °F /  3.3 °C 30.01in /  1016.1hPa SSE 15.0mph /  24.1km/h 15.0mph /  24.1km/h 66% 0.00in /  0mm 0.0 W/m2
00:41 49.0 °F /  9.4 °C 38.1 °F /  3.4 °C 30.00in /  1015.8hPa SSE 11.5mph /  18.5km/h 11.5mph /  18.5km/h 66% 0.00in /  0mm 0.0 W/m2
00:46 48.9 °F /  9.4 °C 38.0 °F /  3.3 °C 30.00in /  1015.8hPa SSE 11.0mph /  17.7km/h 11.0mph /  17.7km/h 66% 0.00in /  0mm 0.0 W/m2
00:51 48.9 °F /  9.4 °C 38.0 °F /  3.3 °C 30.01in /  1016.1hPa SSE 9.0mph /  14.5km/h 9.0mph /  14.5km/h 66% 0.00in /  0mm 0.0 W/m2
00:56 48.9 °F /  9.4 °C 38.0 °F /  3.3 °C 30.01in /  1016.1hPa SSE 11.5mph /  18.5km/h 11.5mph /  18.5km/h 66% 0.00in /  0mm 0.0 W/m2
01:01 49.0 °F /  9.4 °C 38.1 °F /  3.4 °C 30.01in /  1016.1hPa SSE 9.2mph /  14.8km/h 9.2mph /  14.8km/h 66% 0.00in /  0mm 0.0 W/m2
01:06 49.1 °F /  9.5 °C 38.2 °F /  3.4 °C 30.01in /  1016.1hPa SSE 11.5mph /  18.5km/h 11.5mph /  18.5km/h 66% 0.00in /  0mm 0.0 W/m2
01:11 49.2 °F /  9.6 °C 38.3 °F /  3.5 °C 30.02in /  1016.5hPa SSE 9.2mph /  14.8km/h 9.2mph /  14.8km/h 66% 0.00in /  0mm 0.0 W/m2
01:16 49.1 °F /  9.5 °C 38.2 °F /  3.4 °C 30.01in /  1016.1hPa SSE 8.1mph /  13km/h 8.1mph /  13km/h 66% 0.00in /  0mm 0.0 W/m2
01:21 48.9 °F /  9.4 °C 38.4 °F /  3.6 °C 30.02in /  1016.5hPa South 8.1mph /  13km/h 8.1mph /  13km/h 67% 0.00in /  0mm 0.0 W/m2
01:26 48.8 °F /  9.3 °C 38.3 °F /  3.5 °C 30.02in /  1016.5hPa SSE 6.9mph /  11.1km/h 6.9mph /  11.1km/h 67% 0.00in /  0mm 0.0 W/m2
01:31 48.7 °F /  9.3 °C 38.6 °F /  3.7 °C 30.02in /  1016.5hPa South 5.8mph /  9.3km/h 5.8mph /  9.3km/h 68% 0.00in /  0mm 0.0 W/m2
01:36 48.7 °F /  9.3 °C 38.6 °F /  3.7 °C 30.02in /  1016.5hPa South 6.0mph /  9.7km/h 6.0mph /  9.7km/h 68% 0.00in /  0mm 0.0 W/m2
01:41 48.7 °F /  9.3 °C 38.6 °F /  3.7 °C 30.01in /  1016.1hPa South 4.6mph /  7.4km/h 4.6mph /  7.4km/h 68% 0.00in /  0mm 0.0 W/m2
01:46 48.7 °F /  9.3 °C 39.0 °F /  3.9 °C 30.01in /  1016.1hPa South 6.0mph /  9.7km/h 6.0mph /  9.7km/h 69% 0.00in /  0mm 0.0 W/m2
01:51 48.7 °F /  9.3 °C 39.0 °F /  3.9 °C 30.01in /  1016.1hPa South 4.6mph /  7.4km/h 4.6mph /  7.4km/h 69% 0.00in /  0mm 0.0 W/m2
01:56 48.8 °F /  9.3 °C 39.1 °F /  3.9 °C 30.01in /  1016.1hPa South 4.6mph /  7.4km/h 4.6mph /  7.4km/h 69% 0.00in /  0mm 0.0 W/m2
02:01 49.0 °F /  9.4 °C 39.3 °F /  4.1 °C 30.01in /  1016.1hPa South 6.9mph /  11.1km/h 6.9mph /  11.1km/h 69% 0.00in /  0mm 0.0 W/m2
02:06 49.2 °F /  9.6 °C 39.5 °F /  4.2 °C 30.01in /  1016.1hPa SSE 8.1mph /  13km/h 8.1mph /  13km/h 69% 0.00in /  0mm 0.0 W/m2
02:11 49.2 °F /  9.6 °C 39.5 °F /  4.2 °C 30.00in /  1015.8hPa SSE 10.4mph /  16.7km/h 10.4mph /  16.7km/h 69% 0.00in /  0mm 0.0 W/m2
02:16 49.4 °F /  9.7 °C 39.7 °F /  4.3 °C 30.00in /  1015.8hPa SSE 11.5mph /  18.5km/h 11.5mph /  18.5km/h 69% 0.00in /  0mm 0.0 W/m2
02:21 49.4 °F /  9.7 °C 39.7 °F /  4.3 °C 30.00in /  1015.8hPa SSE 11.5mph /  18.5km/h 11.5mph /  18.5km/h 69% 0.00in /  0mm 0.0 W/m2
02:26 49.5 °F /  9.7 °C 39.7 °F /  4.3 °C 29.99in /  1015.5hPa SSE 11.5mph /  18.5km/h 11.5mph /  18.5km/h 69% 0.00in /  0mm 0.0 W/m2
02:31 49.6 °F /  9.8 °C 39.8 °F /  4.3 °C 29.99in /  1015.5hPa SSE 9.2mph /  14.8km/h 9.2mph /  14.8km/h 69% 0.00in /  0mm 0.0 W/m2
02:36 49.7 °F /  9.8 °C 39.6 °F /  4.2 °C 29.99in /  1015.5hPa SSE 9.2mph /  14.8km/h 9.2mph /  14.8km/h 68% 0.00in /  0mm 0.0 W/m2
02:42 49.9 °F /  9.9 °C 39.8 °F /  4.3 °C 29.99in /  1015.5hPa SSE 11.5mph /  18.5km/h 11.5mph /  18.5km/h 68% 0.00in /  0mm 0.0 W/m2
02:47 50.1 °F /  10.1 °C 39.9 °F /  4.4 °C 29.99in /  1015.5hPa South 10.4mph /  16.7km/h 10.4mph /  16.7km/h 68% 0.00in /  0mm 0.0 W/m2
02:52 50.1 °F /  10.1 °C 39.9 °F /  4.4 °C 29.99in /  1015.5hPa South 12.0mph /  19.3km/h 12.0mph /  19.3km/h 68% 0.00in /  0mm 0.0 W/m2
02:57 50.1 °F /  10.1 °C 40.3 °F /  4.6 °C 29.98in /  1015.1hPa South 8.1mph /  13km/h 8.1mph /  13km/h 69% 0.00in /  0mm 0.0 W/m2
03:02 49.9 °F /  9.9 °C 40.1 °F /  4.5 °C 29.98in /  1015.1hPa South 9.2mph /  14.8km/h 9.2mph /  14.8km/h 69% 0.00in /  0mm 0.0 W/m2
03:07 49.8 °F /  9.9 °C 40.0 °F /  4.4 °C 29.98in /  1015.1hPa SSE 8.0mph /  12.9km/h 8.0mph /  12.9km/h 69% 0.00in /  0mm 0.0 W/m2
03:12 49.6 °F /  9.8 °C 40.2 °F /  4.6 °C 29.98in /  1015.1hPa SSE 10.4mph /  16.7km/h 10.4mph /  16.7km/h 70% 0.00in /  0mm 0.0 W/m2
03:17 49.6 °F /  9.8 °C 40.2 °F /  4.6 °C 29.98in /  1015.1hPa SSE 9.0mph /  14.5km/h 9.0mph /  14.5km/h 70% 0.00in /  0mm 0.0 W/m2
03:22 49.6 °F /  9.8 °C 40.2 °F /  4.6 °C 29.97in /  1014.8hPa SSE 9.2mph /  14.8km/h 9.2mph /  14.8km/h 70% 0.00in /  0mm 0.0 W/m2
03:27 49.7 °F /  9.8 °C 40.3 °F /  4.6 °C 29.97in /  1014.8hPa SSE 12.7mph /  20.4km/h 12.7mph /  20.4km/h 70% 0.00in /  0mm 0.0 W/m2
03:32 49.8 °F /  9.9 °C 40.8 °F /  4.9 °C 29.96in /  1014.4hPa SSE 10.4mph /  16.7km/h 10.4mph /  16.7km/h 71% 0.00in /  0mm 0.0 W/m2
03:37 49.9 °F /  9.9 °C 40.9 °F /  4.9 °C 29.96in /  1014.4hPa SSE 11.5mph /  18.5km/h 11.5mph /  18.5km/h 71% 0.00in /  0mm 0.0 W/m2
03:42 50.0 °F /  10 °C 41.0 °F /  5 °C 29.96in /  1014.4hPa SSE 11.5mph /  18.5km/h 11.5mph /  18.5km/h 71% 0.00in /  0mm 0.0 W/m2
03:47 50.4 °F /  10.2 °C 41.0 °F /  5 °C 29.95in /  1014.1hPa SSE 11.5mph /  18.5km/h 11.5mph /  18.5km/h 70% 0.00in /  0mm 0.0 W/m2
03:52 50.9 °F /  10.5 °C 41.1 °F /  5.1 °C 29.96in /  1014.4hPa South 11.5mph /  18.5km/h 11.5mph /  18.5km/h 69% 0.00in /  0mm 0.0 W/m2
03:57 51.4 °F /  10.8 °C 41.2 °F /  5.1 °C 29.96in /  1014.4hPa South 11.5mph /  18.5km/h 11.5mph /  18.5km/h 68% 0.00in /  0mm 0.0 W/m2
04:02 51.8 °F /  11 °C 41.6 °F /  5.3 °C 29.95in /  1014.1hPa South 16.1mph /  25.9km/h 16.1mph /  25.9km/h 68% 0.00in /  0mm 0.0 W/m2
04:07 52.0 °F /  11.1 °C 41.4 °F /  5.2 °C 29.96in /  1014.4hPa South 11.5mph /  18.5km/h 11.5mph /  18.5km/h 67% 0.00in /  0mm 0.0 W/m2
04:12 52.1 °F /  11.2 °C 41.5 °F /  5.3 °C 29.95in /  1014.1hPa SSE 11.5mph /  18.5km/h 11.5mph /  18.5km/h 67% 0.00in /  0mm 0.0 W/m2
04:17 52.2 °F /  11.2 °C 41.6 °F /  5.3 °C 29.95in /  1014.1hPa South 11.5mph /  18.5km/h 11.5mph /  18.5km/h 67% 0.00in /  0mm 0.0 W/m2
04:22 52.3 °F /  11.3 °C 41.7 °F /  5.4 °C 29.95in /  1014.1hPa South 11.5mph /  18.5km/h 11.5mph /  18.5km/h 67% 0.00in /  0mm 0.0 W/m2
04:27 52.3 °F /  11.3 °C 41.7 °F /  5.4 °C 29.95in /  1014.1hPa SSE 10.4mph /  16.7km/h 10.4mph /  16.7km/h 67% 0.00in /  0mm 0.0 W/m2
04:37 52.3 °F /  11.3 °C 41.7 °F /  5.4 °C 29.95in /  1014.1hPa SSE 5.8mph /  9.3km/h 5.8mph /  9.3km/h 67% 0.00in /  0mm 0.0 W/m2
04:42 52.2 °F /  11.2 °C 42.0 °F /  5.6 °C 29.95in /  1014.1hPa South 5.8mph /  9.3km/h 5.8mph /  9.3km/h 68% 0.00in /  0mm 0.0 W/m2
04:47 52.1 °F /  11.2 °C 41.9 °F /  5.5 °C 29.95in /  1014.1hPa SSE 6.0mph /  9.7km/h 6.0mph /  9.7km/h 68% 0.00in /  0mm 0.0 W/m2
04:52 52.2 °F /  11.2 °C 42.0 °F /  5.6 °C 29.94in /  1013.8hPa SSE 6.9mph /  11.1km/h 6.9mph /  11.1km/h 68% 0.00in /  0mm 0.0 W/m2
04:57 52.5 °F /  11.4 °C 42.2 °F /  5.7 °C 29.94in /  1013.8hPa SSE 8.1mph /  13km/h 8.1mph /  13km/h 68% 0.00in /  0mm 0.0 W/m2
05:02 52.6 °F /  11.4 °C 41.9 °F /  5.5 °C 29.94in /  1013.8hPa SSE 11.5mph /  18.5km/h 11.5mph /  18.5km/h 67% 0.00in /  0mm 0.0 W/m2
05:07 52.9 °F /  11.6 °C 41.8 °F /  5.4 °C 29.94in /  1013.8hPa SSE 10.4mph /  16.7km/h 10.4mph /  16.7km/h 66% 0.00in /  0mm 0.0 W/m2
05:12 53.2 °F /  11.8 °C 42.1 °F /  5.6 °C 29.93in /  1013.4hPa South 11.5mph /  18.5km/h 11.5mph /  18.5km/h 66% 0.00in /  0mm 0.0 W/m2
05:17 53.2 °F /  11.8 °C 42.1 °F /  5.6 °C 29.93in /  1013.4hPa SSE 18.0mph /  29km/h 18.0mph /  29km/h 66% 0.00in /  0mm 0.0 W/m2
05:22 53.4 °F /  11.9 °C 41.9 °F /  5.5 °C 29.93in /  1013.4hPa South 16.1mph /  25.9km/h 16.1mph /  25.9km/h 65% 0.00in /  0mm 0.0 W/m2
05:27 53.4 °F /  11.9 °C 42.3 °F /  5.7 °C 29.93in /  1013.4hPa SSE 12.0mph /  19.3km/h 12.0mph /  19.3km/h 66% 0.00in /  0mm 0.0 W/m2
05:32 53.3 °F /  11.8 °C 41.8 °F /  5.4 °C 29.93in /  1013.4hPa South 11.5mph /  18.5km/h 11.5mph /  18.5km/h 65% 0.00in /  0mm 0.0 W/m2
05:37 53.3 °F /  11.8 °C 41.8 °F /  5.4 °C 29.92in /  1013.1hPa South 11.5mph /  18.5km/h 11.5mph /  18.5km/h 65% 0.00in /  0mm 0.0 W/m2
05:42 53.2 °F /  11.8 °C 42.1 °F /  5.6 °C 29.92in /  1013.1hPa SSE 15.0mph /  24.1km/h 15.0mph /  24.1km/h 66% 0.00in /  0mm 0.0 W/m2
05:47 53.2 °F /  11.8 °C 42.1 °F /  5.6 °C 29.92in /  1013.1hPa SSE 12.7mph /  20.4km/h 12.7mph /  20.4km/h 66% 0.00in /  0mm 0.0 W/m2
05:52 53.3 °F /  11.8 °C 41.8 °F /  5.4 °C 29.92in /  1013.1hPa SSE 13.8mph /  22.2km/h 13.8mph /  22.2km/h 65% 0.00in /  0mm 0.0 W/m2
05:57 53.3 °F /  11.8 °C 42.2 °F /  5.7 °C 29.91in /  1012.8hPa SSE 12.7mph /  20.4km/h 12.7mph /  20.4km/h 66% 0.00in /  0mm 0.0 W/m2
06:02 53.1 °F /  11.7 °C 42.0 °F /  5.6 °C 29.92in /  1013.1hPa SSE 12.0mph /  19.3km/h 12.0mph /  19.3km/h 66% 0.00in /  0mm 0.0 W/m2
06:07 52.8 °F /  11.6 °C 41.7 °F /  5.4 °C 29.91in /  1012.8hPa South 18.4mph /  29.6km/h 18.4mph /  29.6km/h 66% 0.00in /  0mm 0.0 W/m2
06:12 52.6 °F /  11.4 °C 41.9 °F /  5.5 °C 29.90in /  1012.4hPa SSE 13.8mph /  22.2km/h 13.8mph /  22.2km/h 67% 0.00in /  0mm 0.0 W/m2
06:17 52.3 °F /  11.3 °C 41.7 °F /  5.4 °C 29.90in /  1012.4hPa SSE 12.7mph /  20.4km/h 12.7mph /  20.4km/h 67% 0.00in /  0mm 0.0 W/m2
06:22 52.0 °F /  11.1 °C 41.8 °F /  5.4 °C 29.90in /  1012.4hPa South 11.5mph /  18.5km/h 11.5mph /  18.5km/h 68% 0.00in /  0mm 0.0 W/m2
06:27 52.0 °F /  11.1 °C 41.8 °F /  5.4 °C 29.90in /  1012.4hPa SE 10.0mph /  16.1km/h 10.0mph /  16.1km/h 68% 0.00in /  0mm 0.0 W/m2
06:32 52.3 °F /  11.3 °C 42.0 °F /  5.6 °C 29.90in /  1012.4hPa South 15.0mph /  24.1km/h 15.0mph /  24.1km/h 68% 0.00in /  0mm 0.0 W/m2
06:37 52.4 °F /  11.3 °C 42.1 °F /  5.6 °C 29.90in /  1012.4hPa South 11.5mph /  18.5km/h 11.5mph /  18.5km/h 68% 0.00in /  0mm 0.0 W/m2
06:42 52.5 °F /  11.4 °C 42.2 °F /  5.7 °C 29.89in /  1012.1hPa SSE 12.7mph /  20.4km/h 12.7mph /  20.4km/h 68% 0.00in /  0mm 0.0 W/m2
06:47 52.5 °F /  11.4 °C 42.2 °F /  5.7 °C 29.89in /  1012.1hPa South 16.1mph /  25.9km/h 16.1mph /  25.9km/h 68% 0.00in /  0mm 0.0 W/m2
06:52 52.3 °F /  11.3 °C 42.0 °F /  5.6 °C 29.89in /  1012.1hPa SSE 12.7mph /  20.4km/h 12.7mph /  20.4km/h 68% 0.00in /  0mm 0.0 W/m2
06:57 51.8 °F /  11 °C 41.9 °F /  5.5 °C 29.89in /  1012.1hPa SSE 11.5mph /  18.5km/h 11.5mph /  18.5km/h 69% 0.00in /  0mm 0.0 W/m2
07:02 51.5 °F /  10.8 °C 41.7 °F /  5.4 °C 29.88in /  1011.7hPa SSE 11.5mph /  18.5km/h 11.5mph /  18.5km/h 69% 0.00in /  0mm 0.0 W/m2
07:07 51.4 °F /  10.8 °C 41.9 °F /  5.5 °C 29.88in /  1011.7hPa SSE 12.7mph /  20.4km/h 12.7mph /  20.4km/h 70% 0.00in /  0mm 0.0 W/m2
07:12 51.3 °F /  10.7 °C 41.8 °F /  5.4 °C 29.88in /  1011.7hPa South 11.5mph /  18.5km/h 11.5mph /  18.5km/h 70% 0.00in /  0mm 5.0 W/m2
07:17 51.2 °F /  10.7 °C 41.7 °F /  5.4 °C 29.88in /  1011.7hPa SSE 10.4mph /  16.7km/h 10.4mph /  16.7km/h 70% 0.00in /  0mm 7.0 W/m2
07:22 51.2 °F /  10.7 °C 41.7 °F /  5.4 °C 29.88in /  1011.7hPa SSE 8.1mph /  13km/h 8.1mph /  13km/h 70% 0.00in /  0mm 11.0 W/m2
07:27 51.3 °F /  10.7 °C 42.2 °F /  5.7 °C 29.88in /  1011.7hPa SSE 9.2mph /  14.8km/h 9.2mph /  14.8km/h 71% 0.00in /  0mm 12.0 W/m2
07:32 51.3 °F /  10.7 °C 42.2 °F /  5.7 °C 29.88in /  1011.7hPa SSE 11.5mph /  18.5km/h 11.5mph /  18.5km/h 71% 0.00in /  0mm 18.0 W/m2
07:38 51.5 °F /  10.8 °C 42.0 °F /  5.6 °C 29.88in /  1011.7hPa SSE 9.2mph /  14.8km/h 9.2mph /  14.8km/h 70% 0.00in /  0mm 30.0 W/m2
07:43 51.9 °F /  11.1 °C 42.4 °F /  5.8 °C 29.87in /  1011.4hPa SSE 11.5mph /  18.5km/h 11.5mph /  18.5km/h 70% 0.00in /  0mm 40.0 W/m2
07:48 52.1 °F /  11.2 °C 42.6 °F /  5.9 °C 29.87in /  1011.4hPa SSE 12.7mph /  20.4km/h 12.7mph /  20.4km/h 70% 0.00in /  0mm 46.0 W/m2
07:53 52.3 °F /  11.3 °C 42.8 °F /  6 °C 29.87in /  1011.4hPa SSE 13.8mph /  22.2km/h 13.8mph /  22.2km/h 70% 0.00in /  0mm 54.0 W/m2
07:58 52.4 °F /  11.3 °C 42.9 °F /  6.1 °C 29.87in /  1011.4hPa South 13.8mph /  22.2km/h 13.8mph /  22.2km/h 70% 0.00in /  0mm 51.0 W/m2
08:03 52.6 °F /  11.4 °C 42.7 °F /  5.9 °C 29.87in /  1011.4hPa SSE 12.7mph /  20.4km/h 12.7mph /  20.4km/h 69% 0.00in /  0mm 46.0 W/m2
08:08 52.8 °F /  11.6 °C 42.9 °F /  6.1 °C 29.87in /  1011.4hPa South 12.7mph /  20.4km/h 12.7mph /  20.4km/h 69% 0.00in /  0mm 30.0 W/m2
08:13 53.0 °F /  11.7 °C 43.1 °F /  6.2 °C 29.87in /  1011.4hPa South 13.8mph /  22.2km/h 13.8mph /  22.2km/h 69% 0.00in /  0mm 26.0 W/m2
08:18 53.1 °F /  11.7 °C 43.2 °F /  6.2 °C 29.86in /  1011.1hPa South 15.0mph /  24.1km/h 15.0mph /  24.1km/h 69% 0.00in /  0mm 39.0 W/m2
08:23 53.3 °F /  11.8 °C 43.4 °F /  6.3 °C 29.86in /  1011.1hPa SSE 11.5mph /  18.5km/h 11.5mph /  18.5km/h 69% 0.00in /  0mm 49.0 W/m2
08:28 53.7 °F /  12.1 °C 43.4 °F /  6.3 °C 29.86in /  1011.1hPa South 19.6mph /  31.5km/h 19.6mph /  31.5km/h 68% 0.00in /  0mm 49.0 W/m2
08:33 54.0 °F /  12.2 °C 43.7 °F /  6.5 °C 29.85in /  1010.7hPa SSE 16.1mph /  25.9km/h 16.1mph /  25.9km/h 68% 0.00in /  0mm 51.0 W/m2
08:38 54.3 °F /  12.4 °C 44.0 °F /  6.7 °C 29.85in /  1010.7hPa South 19.6mph /  31.5km/h 19.6mph /  31.5km/h 68% 0.00in /  0mm 51.0 W/m2
08:43 54.6 °F /  12.6 °C 44.2 °F /  6.8 °C 29.84in /  1010.4hPa South 13.8mph /  22.2km/h 13.8mph /  22.2km/h 68% 0.00in /  0mm 62.0 W/m2
08:48 54.9 °F /  12.7 °C 44.1 °F /  6.7 °C 29.84in /  1010.4hPa South 18.4mph /  29.6km/h 18.4mph /  29.6km/h 67% 0.00in /  0mm 63.0 W/m2
08:53 55.2 °F /  12.9 °C 44.4 °F /  6.9 °C 29.84in /  1010.4hPa SSE 18.4mph /  29.6km/h 18.4mph /  29.6km/h 67% 0.00in /  0mm 76.0 W/m2
08:58 55.5 °F /  13.1 °C 44.7 °F /  7.1 °C 29.84in /  1010.4hPa South 17.3mph /  27.8km/h 17.3mph /  27.8km/h 67% 0.00in /  0mm 62.0 W/m2
09:03 55.8 °F /  13.2 °C 44.6 °F /  7 °C 29.84in /  1010.4hPa SSE 20.7mph /  33.3km/h 20.7mph /  33.3km/h 66% 0.00in /  0mm 74.0 W/m2
09:08 56.0 °F /  13.3 °C 44.8 °F /  7.1 °C 29.84in /  1010.4hPa South 19.6mph /  31.5km/h 19.6mph /  31.5km/h 66% 0.00in /  0mm 54.0 W/m2
09:13 56.3 °F /  13.5 °C 44.7 °F /  7.1 °C 29.83in /  1010hPa SSE 24.2mph /  38.9km/h 24.2mph /  38.9km/h 65% 0.00in /  0mm 70.0 W/m2
09:18 56.5 °F /  13.6 °C 44.9 °F /  7.2 °C 29.83in /  1010hPa South 16.0mph /  25.7km/h 16.0mph /  25.7km/h 65% 0.00in /  0mm 107.0 W/m2
09:23 56.9 °F /  13.8 °C 44.8 °F /  7.1 °C 29.83in /  1010hPa SSE 21.9mph /  35.2km/h 21.9mph /  35.2km/h 64% 0.00in /  0mm 121.0 W/m2
09:28 57.1 °F /  13.9 °C 45.0 °F /  7.2 °C 29.83in /  1010hPa SSE 22.0mph /  35.4km/h 22.0mph /  35.4km/h 64% 0.00in /  0mm 116.0 W/m2
09:33 57.4 °F /  14.1 °C 45.3 °F /  7.4 °C 29.83in /  1010hPa South 19.6mph /  31.5km/h 19.6mph /  31.5km/h 64% 0.00in /  0mm 125.0 W/m2
09:38 57.7 °F /  14.3 °C 45.6 °F /  7.6 °C 29.82in /  1009.7hPa SSE 20.7mph /  33.3km/h 20.7mph /  33.3km/h 64% 0.00in /  0mm 102.0 W/m2
09:43 57.8 °F /  14.3 °C 45.7 °F /  7.6 °C 29.82in /  1009.7hPa South 22.0mph /  35.4km/h 22.0mph /  35.4km/h 64% 0.00in /  0mm 111.0 W/m2
09:48 57.8 °F /  14.3 °C 45.7 °F /  7.6 °C 29.82in /  1009.7hPa SSE 15.0mph /  24.1km/h 15.0mph /  24.1km/h 64% 0.00in /  0mm 116.0 W/m2
09:58 58.2 °F /  14.6 °C 46.1 °F /  7.8 °C 29.82in /  1009.7hPa South 25.3mph /  40.7km/h 25.3mph /  40.7km/h 64% 0.00in /  0mm 125.0 W/m2
10:03 58.3 °F /  14.6 °C 46.2 °F /  7.9 °C 29.81in /  1009.4hPa SSE 20.7mph /  33.3km/h 20.7mph /  33.3km/h 64% 0.00in /  0mm 102.0 W/m2
10:08 58.4 °F /  14.7 °C 46.3 °F /  7.9 °C 29.81in /  1009.4hPa South 20.7mph /  33.3km/h 20.7mph /  33.3km/h 64% 0.00in /  0mm 139.0 W/m2
10:13 58.4 °F /  14.7 °C 46.3 °F /  7.9 °C 29.81in /  1009.4hPa SSE 17.3mph /  27.8km/h 17.3mph /  27.8km/h 64% 0.00in /  0mm 127.0 W/m2
10:18 58.5 °F /  14.7 °C 46.4 °F /  8 °C 29.80in /  1009hPa SSW 25.0mph /  40.2km/h 25.0mph /  40.2km/h 64% 0.00in /  0mm 142.0 W/m2
10:23 58.6 °F /  14.8 °C 46.5 °F /  8.1 °C 29.80in /  1009hPa South 21.9mph /  35.2km/h 21.9mph /  35.2km/h 64% 0.00in /  0mm 172.0 W/m2
10:28 58.8 °F /  14.9 °C 46.6 °F /  8.1 °C 29.79in /  1008.7hPa SSE 16.1mph /  25.9km/h 16.1mph /  25.9km/h 64% 0.00in /  0mm 216.0 W/m2
10:33 58.9 °F /  14.9 °C 46.7 °F /  8.2 °C 29.79in /  1008.7hPa South 20.7mph /  33.3km/h 20.7mph /  33.3km/h 64% 0.00in /  0mm 174.0 W/m2
10:38 58.9 °F /  14.9 °C 46.7 °F /  8.2 °C 29.78in /  1008.4hPa South 19.6mph /  31.5km/h 19.6mph /  31.5km/h 64% 0.00in /  0mm 120.0 W/m2
10:43 58.8 °F /  14.9 °C 46.6 °F /  8.1 °C 29.78in /  1008.4hPa South 20.7mph /  33.3km/h 20.7mph /  33.3km/h 64% 0.00in /  0mm 163.0 W/m2
10:53 59.0 °F /  15 °C 46.8 °F /  8.2 °C 29.78in /  1008.4hPa South 18.4mph /  29.6km/h 18.4mph /  29.6km/h 64% 0.00in /  0mm 137.0 W/m2
10:58 59.1 °F /  15.1 °C 46.9 °F /  8.3 °C 29.77in /  1008hPa South 20.7mph /  33.3km/h 20.7mph /  33.3km/h 64% 0.00in /  0mm 113.0 W/m2
11:03 59.2 °F /  15.1 °C 47.0 °F /  8.3 °C 29.77in /  1008hPa SW 19.6mph /  31.5km/h 19.6mph /  31.5km/h 64% 0.00in /  0mm 156.0 W/m2
11:08 59.5 °F /  15.3 °C 47.3 °F /  8.5 °C 29.76in /  1007.7hPa South 24.2mph /  38.9km/h 24.2mph /  38.9km/h 64% 0.00in /  0mm 188.0 W/m2
11:13 60.0 °F /  15.6 °C 47.8 °F /  8.8 °C 29.76in /  1007.7hPa South 16.1mph /  25.9km/h 16.1mph /  25.9km/h 64% 0.00in /  0mm 272.0 W/m2
11:18 60.5 °F /  15.8 °C 47.8 °F /  8.8 °C 29.75in /  1007.3hPa SSE 24.2mph /  38.9km/h 24.2mph /  38.9km/h 63% 0.00in /  0mm 271.0 W/m2
11:23 60.9 °F /  16.1 °C 47.8 °F /  8.8 °C 29.75in /  1007.3hPa South 23.0mph /  37km/h 23.0mph /  37km/h 62% 0.00in /  0mm 230.0 W/m2
11:28 61.1 °F /  16.2 °C 48.0 °F /  8.9 °C 29.75in /  1007.3hPa South 18.4mph /  29.6km/h 18.4mph /  29.6km/h 62% 0.00in /  0mm 225.0 W/m2
11:33 61.3 °F /  16.3 °C 48.2 °F /  9 °C 29.74in /  1007hPa SW 15.0mph /  24.1km/h 15.0mph /  24.1km/h 62% 0.00in /  0mm 216.0 W/m2
11:38 61.5 °F /  16.4 °C 48.4 °F /  9.1 °C 29.74in /  1007hPa South 19.6mph /  31.5km/h 19.6mph /  31.5km/h 62% 0.00in /  0mm 255.0 W/m2
11:43 61.8 °F /  16.6 °C 48.6 °F /  9.2 °C 29.74in /  1007hPa SSW 17.3mph /  27.8km/h 17.3mph /  27.8km/h 62% 0.00in /  0mm 234.0 W/m2
11:48 62.1 °F /  16.7 °C 48.5 °F /  9.2 °C 29.74in /  1007hPa South 18.4mph /  29.6km/h 18.4mph /  29.6km/h 61% 0.00in /  0mm 186.0 W/m2
11:53 62.1 °F /  16.7 °C 48.5 °F /  9.2 °C 29.73in /  1006.7hPa South 19.6mph /  31.5km/h 19.6mph /  31.5km/h 61% 0.00in /  0mm 162.0 W/m2
11:58 62.1 °F /  16.7 °C 48.9 °F /  9.4 °C 29.73in /  1006.7hPa South 19.6mph /  31.5km/h 19.6mph /  31.5km/h 62% 0.00in /  0mm 181.0 W/m2
12:03 62.2 °F /  16.8 °C 49.0 °F /  9.4 °C 29.72in /  1006.3hPa South 20.7mph /  33.3km/h 20.7mph /  33.3km/h 62% 0.00in /  0mm 185.0 W/m2
12:08 62.4 °F /  16.9 °C 49.2 °F /  9.6 °C 29.72in /  1006.3hPa South 19.6mph /  31.5km/h 19.6mph /  31.5km/h 62% 0.00in /  0mm 197.0 W/m2
12:13 62.5 °F /  16.9 °C 49.3 °F /  9.6 °C 29.72in /  1006.3hPa SW 18.4mph /  29.6km/h 18.4mph /  29.6km/h 62% 0.00in /  0mm 225.0 W/m2
12:18 62.8 °F /  17.1 °C 49.6 °F /  9.8 °C 29.72in /  1006.3hPa South 23.0mph /  37km/h 23.0mph /  37km/h 62% 0.00in /  0mm 306.0 W/m2
12:23 63.0 °F /  17.2 °C 49.8 °F /  9.9 °C 29.72in /  1006.3hPa South 19.6mph /  31.5km/h 19.6mph /  31.5km/h 62% 0.00in /  0mm 220.0 W/m2
12:28 63.0 °F /  17.2 °C 49.8 °F /  9.9 °C 29.71in /  1006hPa South 18.4mph /  29.6km/h 18.4mph /  29.6km/h 62% 0.00in /  0mm 207.0 W/m2
12:33 62.9 °F /  17.2 °C 49.7 °F /  9.8 °C 29.71in /  1006hPa South 19.6mph /  31.5km/h 19.6mph /  31.5km/h 62% 0.00in /  0mm 211.0 W/m2
12:38 62.9 °F /  17.2 °C 49.7 °F /  9.8 °C 29.70in /  1005.6hPa SW 20.7mph /  33.3km/h 20.7mph /  33.3km/h 62% 0.00in /  0mm 206.0 W/m2
12:43 63.1 °F /  17.3 °C 49.9 °F /  9.9 °C 29.70in /  1005.6hPa SSW 19.6mph /  31.5km/h 19.6mph /  31.5km/h 62% 0.00in /  0mm 202.0 W/m2
12:48 63.2 °F /  17.3 °C 50.0 °F /  10 °C 29.70in /  1005.6hPa SSE 24.2mph /  38.9km/h 24.2mph /  38.9km/h 62% 0.00in /  0mm 179.0 W/m2
12:53 63.1 °F /  17.3 °C 49.9 °F /  9.9 °C 29.70in /  1005.6hPa South 19.6mph /  31.5km/h 19.6mph /  31.5km/h 62% 0.00in /  0mm 169.0 W/m2
12:58 63.2 °F /  17.3 °C 50.0 °F /  10 °C 29.70in /  1005.6hPa South 25.3mph /  40.7km/h 25.3mph /  40.7km/h 62% 0.00in /  0mm 192.0 W/m2
13:03 63.4 °F /  17.4 °C 49.7 °F /  9.8 °C 29.69in /  1005.3hPa SW 24.2mph /  38.9km/h 24.2mph /  38.9km/h 61% 0.00in /  0mm 197.0 W/m2
13:08 63.5 °F /  17.5 °C 50.2 °F /  10.1 °C 29.69in /  1005.3hPa South 17.3mph /  27.8km/h 17.3mph /  27.8km/h 62% 0.00in /  0mm 186.0 W/m2
13:13 63.6 °F /  17.6 °C 49.9 °F /  9.9 °C 29.69in /  1005.3hPa South 19.6mph /  31.5km/h 19.6mph /  31.5km/h 61% 0.00in /  0mm 158.0 W/m2
13:18 63.6 °F /  17.6 °C 49.9 °F /  9.9 °C 29.68in /  1005hPa South 19.6mph /  31.5km/h 19.6mph /  31.5km/h 61% 0.00in /  0mm 160.0 W/m2
13:23 63.5 °F /  17.5 °C 49.8 °F /  9.9 °C 29.68in /  1005hPa SSW 17.3mph /  27.8km/h 17.3mph /  27.8km/h 61% 0.00in /  0mm 155.0 W/m2
13:28 63.5 °F /  17.5 °C 49.8 °F /  9.9 °C 29.67in /  1004.6hPa South 25.3mph /  40.7km/h 25.3mph /  40.7km/h 61% 0.00in /  0mm 148.0 W/m2
13:33 63.4 °F /  17.4 °C 49.7 °F /  9.8 °C 29.67in /  1004.6hPa South 28.8mph /  46.3km/h 28.8mph /  46.3km/h 61% 0.00in /  0mm 137.0 W/m2
13:38 63.4 °F /  17.4 °C 50.1 °F /  10.1 °C 29.67in /  1004.6hPa SSW 17.3mph /  27.8km/h 17.3mph /  27.8km/h 62% 0.00in /  0mm 121.0 W/m2
13:43 63.3 °F /  17.4 °C 49.6 °F /  9.8 °C 29.68in /  1005hPa SSW 19.6mph /  31.5km/h 19.6mph /  31.5km/h 61% 0.00in /  0mm 114.0 W/m2
13:48 63.2 °F /  17.3 °C 49.5 °F /  9.7 °C 29.67in /  1004.6hPa South 18.4mph /  29.6km/h 18.4mph /  29.6km/h 61% 0.00in /  0mm 128.0 W/m2
13:50 63.2 °F /  17.3 °C 49.5 °F /  9.7 °C 29.67in /  1004.6hPa SSE 19.6mph /  31.5km/h 19.6mph /  31.5km/h 61% 0.00in /  0mm 135.0 W/m2
13:55 63.2 °F /  17.3 °C 49.5 °F /  9.7 °C 29.67in /  1004.6hPa South 19.6mph /  31.5km/h 19.6mph /  31.5km/h 61% 0.00in /  0mm 141.0 W/m2
14:00 63.2 °F /  17.3 °C 49.5 °F /  9.7 °C 29.68in /  1005hPa South 17.3mph /  27.8km/h 17.3mph /  27.8km/h 61% 0.00in /  0mm 132.0 W/m2
14:05 63.1 °F /  17.3 °C 49.4 °F /  9.7 °C 29.68in /  1005hPa South 19.6mph /  31.5km/h 19.6mph /  31.5km/h 61% 0.00in /  0mm 125.0 W/m2
14:10 63.1 °F /  17.3 °C 49.4 °F /  9.7 °C 29.68in /  1005hPa South 21.9mph /  35.2km/h 21.9mph /  35.2km/h 61% 0.00in /  0mm 109.0 W/m2
14:15 63.0 °F /  17.2 °C 49.3 °F /  9.6 °C 29.68in /  1005hPa South 18.4mph /  29.6km/h 18.4mph /  29.6km/h 61% 0.00in /  0mm 91.0 W/m2
14:20 63.1 °F /  17.3 °C 49.4 °F /  9.7 °C 29.67in /  1004.6hPa SSW 19.6mph /  31.5km/h 19.6mph /  31.5km/h 61% 0.00in /  0mm 93.0 W/m2
14:25 63.2 °F /  17.3 °C 49.5 °F /  9.7 °C 29.68in /  1005hPa South 21.9mph /  35.2km/h 21.9mph /  35.2km/h 61% 0.00in /  0mm 81.0 W/m2
14:30 63.3 °F /  17.4 °C 49.2 °F /  9.6 °C 29.67in /  1004.6hPa SSE 20.7mph /  33.3km/h 20.7mph /  33.3km/h 60% 0.00in /  0mm 79.0 W/m2
14:35 63.2 °F /  17.3 °C 49.1 °F /  9.5 °C 29.67in /  1004.6hPa South 24.2mph /  38.9km/h 24.2mph /  38.9km/h 60% 0.00in /  0mm 69.0 W/m2
14:40 63.2 °F /  17.3 °C 48.6 °F /  9.2 °C 29.67in /  1004.6hPa South 18.4mph /  29.6km/h 18.4mph /  29.6km/h 59% 0.00in /  0mm 46.0 W/m2
14:45 63.1 °F /  17.3 °C 48.5 °F /  9.2 °C 29.67in /  1004.6hPa South 21.9mph /  35.2km/h 21.9mph /  35.2km/h 59% 0.00in /  0mm 44.0 W/m2
14:50 63.1 °F /  17.3 °C 48.5 °F /  9.2 °C 29.67in /  1004.6hPa South 16.1mph /  25.9km/h 16.1mph /  25.9km/h 59% 0.00in /  0mm 46.0 W/m2
14:55 63.1 °F /  17.3 °C 48.5 °F /  9.2 °C 29.68in /  1005hPa SSW 12.7mph /  20.4km/h 12.7mph /  20.4km/h 59% 0.00in /  0mm 56.0 W/m2
15:00 63.0 °F /  17.2 °C 48.9 °F /  9.4 °C 29.68in /  1005hPa South 16.1mph /  25.9km/h 16.1mph /  25.9km/h 60% 0.00in /  0mm 56.0 W/m2
15:05 63.0 °F /  17.2 °C 48.9 °F /  9.4 °C 29.68in /  1005hPa South 17.3mph /  27.8km/h 17.3mph /  27.8km/h 60% 0.00in /  0mm 47.0 W/m2
15:10 63.1 °F /  17.3 °C 49.0 °F /  9.4 °C 29.68in /  1005hPa SW 19.6mph /  31.5km/h 19.6mph /  31.5km/h 60% 0.00in /  0mm 40.0 W/m2
15:15 63.0 °F /  17.2 °C 48.4 °F /  9.1 °C 29.68in /  1005hPa SSW 21.9mph /  35.2km/h 21.9mph /  35.2km/h 59% 0.00in /  0mm 42.0 W/m2
15:20 63.1 °F /  17.3 °C 48.5 °F /  9.2 °C 29.68in /  1005hPa SSW 17.3mph /  27.8km/h 17.3mph /  27.8km/h 59% 0.00in /  0mm 26.0 W/m2
15:25 63.1 °F /  17.3 °C 48.5 °F /  9.2 °C 29.68in /  1005hPa SSW 18.4mph /  29.6km/h 18.4mph /  29.6km/h 59% 0.00in /  0mm 19.0 W/m2
15:30 63.0 °F /  17.2 °C 48.4 °F /  9.1 °C 29.68in /  1005hPa South 13.8mph /  22.2km/h 13.8mph /  22.2km/h 59% 0.00in /  0mm 18.0 W/m2
15:35 62.8 °F /  17.1 °C 48.7 °F /  9.3 °C 29.68in /  1005hPa South 19.6mph /  31.5km/h 19.6mph /  31.5km/h 60% 0.00in /  0mm 19.0 W/m2
15:40 62.9 °F /  17.2 °C 48.3 °F /  9.1 °C 29.68in /  1005hPa South 21.9mph /  35.2km/h 21.9mph /  35.2km/h 59% 0.00in /  0mm 21.0 W/m2
15:45 62.9 °F /  17.2 °C 48.8 °F /  9.3 °C 29.67in /  1004.6hPa SSW 21.9mph /  35.2km/h 21.9mph /  35.2km/h 60% 0.00in /  0mm 26.0 W/m2
15:50 62.6 °F /  17 °C 48.5 °F /  9.2 °C 29.66in /  1004.3hPa South 13.8mph /  22.2km/h 13.8mph /  22.2km/h 60% 0.00in /  0mm 28.0 W/m2
15:55 62.2 °F /  16.8 °C 48.6 °F /  9.2 °C 29.67in /  1004.6hPa South 19.6mph /  31.5km/h 19.6mph /  31.5km/h 61% 0.00in /  0mm 21.0 W/m2
16:00 61.7 °F /  16.5 °C 48.1 °F /  8.9 °C 29.66in /  1004.3hPa SSE 19.6mph /  31.5km/h 19.6mph /  31.5km/h 61% 0.00in /  0mm 14.0 W/m2
16:05 61.6 °F /  16.4 °C 48.4 °F /  9.1 °C 29.66in /  1004.3hPa South 19.6mph /  31.5km/h 19.6mph /  31.5km/h 62% 0.00in /  0mm 7.0 W/m2
16:10 61.7 °F /  16.5 °C 48.5 °F /  9.2 °C 29.66in /  1004.3hPa South 20.7mph /  33.3km/h 20.7mph /  33.3km/h 62% 0.00in /  0mm 0.0 W/m2
16:15 61.6 °F /  16.4 °C 48.4 °F /  9.1 °C 29.65in /  1003.9hPa SSE 17.3mph /  27.8km/h 17.3mph /  27.8km/h 62% 0.00in /  0mm 0.0 W/m2
16:20 61.4 °F /  16.3 °C 47.8 °F /  8.8 °C 29.65in /  1003.9hPa South 19.6mph /  31.5km/h 19.6mph /  31.5km/h 61% 0.00in /  0mm 0.0 W/m2
16:25 61.2 °F /  16.2 °C 48.1 °F /  8.9 °C 29.65in /  1003.9hPa South 22.0mph /  35.4km/h 22.0mph /  35.4km/h 62% 0.00in /  0mm 0.0 W/m2
16:30 60.9 °F /  16.1 °C 47.8 °F /  8.8 °C 29.64in /  1003.6hPa South 25.3mph /  40.7km/h 25.3mph /  40.7km/h 62% 0.00in /  0mm 0.0 W/m2
16:35 60.9 °F /  16.1 °C 47.8 °F /  8.8 °C 29.64in /  1003.6hPa South 19.6mph /  31.5km/h 19.6mph /  31.5km/h 62% 0.00in /  0mm 0.0 W/m2
16:40 60.7 °F /  15.9 °C 48.0 °F /  8.9 °C 29.64in /  1003.6hPa SSE 21.9mph /  35.2km/h 21.9mph /  35.2km/h 63% 0.00in /  0mm 0.0 W/m2
16:45 60.8 °F /  16 °C 48.1 °F /  8.9 °C 29.63in /  1003.3hPa SSE 25.3mph /  40.7km/h 25.3mph /  40.7km/h 63% 0.00in /  0mm 0.0 W/m2
16:50 60.8 °F /  16 °C 48.1 °F /  8.9 °C 29.62in /  1002.9hPa SSW 23.0mph /  37km/h 23.0mph /  37km/h 63% 0.00in /  0mm 0.0 W/m2
16:55 60.8 °F /  16 °C 48.1 °F /  8.9 °C 29.62in /  1002.9hPa SW 21.9mph /  35.2km/h 21.9mph /  35.2km/h 63% 0.00in /  0mm 0.0 W/m2
17:00 60.9 °F /  16.1 °C 48.6 °F /  9.2 °C 29.62in /  1002.9hPa South 23.0mph /  37km/h 23.0mph /  37km/h 64% 0.00in /  0mm 0.0 W/m2
17:05 61.1 °F /  16.2 °C 48.8 °F /  9.3 °C 29.62in /  1002.9hPa SSW 23.0mph /  37km/h 23.0mph /  37km/h 64% 0.00in /  0mm 0.0 W/m2
17:10 61.0 °F /  16.1 °C 48.7 °F /  9.3 °C 29.62in /  1002.9hPa SSE 23.0mph /  37km/h 23.0mph /  37km/h 64% 0.00in /  0mm 0.0 W/m2
17:15 60.8 °F /  16 °C 48.5 °F /  9.2 °C 29.62in /  1002.9hPa South 24.2mph /  38.9km/h 24.2mph /  38.9km/h 64% 0.00in /  0mm 0.0 W/m2
17:20 60.9 °F /  16.1 °C 48.6 °F /  9.2 °C 29.62in /  1002.9hPa South 26.5mph /  42.6km/h 26.5mph /  42.6km/h 64% 0.00in /  0mm 0.0 W/m2
17:30 60.9 °F /  16.1 °C 49.1 °F /  9.5 °C 29.62in /  1002.9hPa SSW 19.6mph /  31.5km/h 19.6mph /  31.5km/h 65% 0.00in /  0mm 0.0 W/m2
17:35 61.1 °F /  16.2 °C 49.2 °F /  9.6 °C 29.62in /  1002.9hPa SSW 23.0mph /  37km/h 23.0mph /  37km/h 65% 0.00in /  0mm 0.0 W/m2
17:40 61.1 °F /  16.2 °C 49.7 °F /  9.8 °C 29.62in /  1002.9hPa South 26.5mph /  42.6km/h 26.5mph /  42.6km/h 66% 0.00in /  0mm 0.0 W/m2
17:45 61.2 °F /  16.2 °C 49.7 °F /  9.8 °C 29.62in /  1002.9hPa South 26.5mph /  42.6km/h 26.5mph /  42.6km/h 66% 0.00in /  0mm 0.0 W/m2
17:50 61.3 °F /  16.3 °C 50.2 °F /  10.1 °C 29.62in /  1002.9hPa South 26.5mph /  42.6km/h 26.5mph /  42.6km/h 67% 0.00in /  0mm 0.0 W/m2
17:55 61.2 °F /  16.2 °C 50.2 °F /  10.1 °C 29.61in /  1002.6hPa SSE 23.0mph /  37km/h 23.0mph /  37km/h 67% 0.00in /  0mm 0.0 W/m2
17:56 61.2 °F /  16.2 °C 50.2 °F /  10.1 °C 29.61in /  1002.6hPa South 23.0mph /  37km/h 23.0mph /  37km/h 67% 0.00in /  0mm 0.0 W/m2
18:01 61.2 °F /  16.2 °C 50.6 °F /  10.3 °C 29.61in /  1002.6hPa South 21.9mph /  35.2km/h 21.9mph /  35.2km/h 68% 0.00in /  0mm 0.0 W/m2
18:06 61.3 °F /  16.3 °C 50.6 °F /  10.3 °C 29.61in /  1002.6hPa South 23.0mph /  37km/h 23.0mph /  37km/h 68% 0.00in /  0mm 0.0 W/m2
18:11 61.2 °F /  16.2 °C 50.6 °F /  10.3 °C 29.61in /  1002.6hPa SSW 20.7mph /  33.3km/h 20.7mph /  33.3km/h 68% 0.00in /  0mm 0.0 W/m2
18:16 61.2 °F /  16.2 °C 50.2 °F /  10.1 °C 29.61in /  1002.6hPa SSE 25.3mph /  40.7km/h 25.3mph /  40.7km/h 67% 0.00in /  0mm 0.0 W/m2
18:21 61.1 °F /  16.2 °C 50.1 °F /  10.1 °C 29.61in /  1002.6hPa South 18.4mph /  29.6km/h 18.4mph /  29.6km/h 67% 0.00in /  0mm 0.0 W/m2
18:26 61.0 °F /  16.1 °C 50.0 °F /  10 °C 29.59in /  1001.9hPa South 24.2mph /  38.9km/h 24.2mph /  38.9km/h 67% 0.00in /  0mm 0.0 W/m2
18:31 60.9 °F /  16.1 °C 49.9 °F /  9.9 °C 29.59in /  1001.9hPa SSW 20.7mph /  33.3km/h 20.7mph /  33.3km/h 67% 0.00in /  0mm 0.0 W/m2
18:36 60.8 °F /  16 °C 49.8 °F /  9.9 °C 29.59in /  1001.9hPa SSW 21.9mph /  35.2km/h 21.9mph /  35.2km/h 67% 0.00in /  0mm 0.0 W/m2
18:41 60.8 °F /  16 °C 49.8 °F /  9.9 °C 29.59in /  1001.9hPa South 19.6mph /  31.5km/h 19.6mph /  31.5km/h 67% 0.00in /  0mm 0.0 W/m2
18:46 60.9 °F /  16.1 °C 49.9 °F /  9.9 °C 29.60in /  1002.3hPa SSE 20.0mph /  32.2km/h 20.0mph /  32.2km/h 67% 0.00in /  0mm 0.0 W/m2
18:51 60.8 °F /  16 °C 50.2 °F /  10.1 °C 29.59in /  1001.9hPa SW 21.9mph /  35.2km/h 21.9mph /  35.2km/h 68% 0.00in /  0mm 0.0 W/m2
18:56 60.9 °F /  16.1 °C 50.3 °F /  10.2 °C 29.60in /  1002.3hPa South 19.6mph /  31.5km/h 19.6mph /  31.5km/h 68% 0.00in /  0mm 0.0 W/m2
19:01 60.9 °F /  16.1 °C 50.3 °F /  10.2 °C 29.60in /  1002.3hPa South 19.6mph /  31.5km/h 19.6mph /  31.5km/h 68% 0.00in /  0mm 0.0 W/m2
19:06 60.8 °F /  16 °C 50.2 °F /  10.1 °C 29.60in /  1002.3hPa SSW 18.4mph /  29.6km/h 18.4mph /  29.6km/h 68% 0.00in /  0mm 0.0 W/m2
19:11 60.7 °F /  15.9 °C 50.5 °F /  10.3 °C 29.59in /  1001.9hPa South 25.3mph /  40.7km/h 25.3mph /  40.7km/h 69% 0.00in /  0mm 0.0 W/m2
19:16 60.7 °F /  15.9 °C 50.5 °F /  10.3 °C 29.59in /  1001.9hPa South 21.9mph /  35.2km/h 21.9mph /  35.2km/h 69% 0.00in /  0mm 0.0 W/m2
19:21 60.6 °F /  15.9 °C 50.4 °F /  10.2 °C 29.59in /  1001.9hPa SSW 27.6mph /  44.4km/h 27.6mph /  44.4km/h 69% 0.00in /  0mm 0.0 W/m2
19:26 60.7 °F /  15.9 °C 50.9 °F /  10.5 °C 29.59in /  1001.9hPa South 19.6mph /  31.5km/h 19.6mph /  31.5km/h 70% 0.00in /  0mm 0.0 W/m2
19:31 60.7 °F /  15.9 °C 50.9 °F /  10.5 °C 29.59in /  1001.9hPa South 19.6mph /  31.5km/h 19.6mph /  31.5km/h 70% 0.00in /  0mm 0.0 W/m2
19:36 60.7 °F /  15.9 °C 50.9 °F /  10.5 °C 29.59in /  1001.9hPa South 27.6mph /  44.4km/h 27.6mph /  44.4km/h 70% 0.00in /  0mm 0.0 W/m2
19:41 60.8 °F /  16 °C 51.0 °F /  10.6 °C 29.59in /  1001.9hPa SSW 21.9mph /  35.2km/h 21.9mph /  35.2km/h 70% 0.00in /  0mm 0.0 W/m2
19:46 60.9 °F /  16.1 °C 51.8 °F /  11 °C 29.58in /  1001.6hPa SSW 26.5mph /  42.6km/h 26.5mph /  42.6km/h 72% 0.00in /  0mm 0.0 W/m2
19:51 60.8 °F /  16 °C 51.7 °F /  10.9 °C 29.59in /  1001.9hPa South 22.0mph /  35.4km/h 22.0mph /  35.4km/h 72% 0.00in /  0mm 0.0 W/m2
20:01 60.9 °F /  16.1 °C 52.2 °F /  11.2 °C 29.59in /  1001.9hPa South 26.5mph /  42.6km/h 26.5mph /  42.6km/h 73% 0.00in /  0mm 0.0 W/m2
20:06 61.1 °F /  16.2 °C 52.4 °F /  11.3 °C 29.59in /  1001.9hPa South 21.9mph /  35.2km/h 21.9mph /  35.2km/h 73% 0.00in /  0mm 0.0 W/m2
20:11 61.2 °F /  16.2 °C 52.8 °F /  11.6 °C 29.59in /  1001.9hPa South 23.0mph /  37km/h 23.0mph /  37km/h 74% 0.00in /  0mm 0.0 W/m2
20:16 61.4 °F /  16.3 °C 53.0 °F /  11.7 °C 29.59in /  1001.9hPa South 25.3mph /  40.7km/h 25.3mph /  40.7km/h 74% 0.00in /  0mm 0.0 W/m2
20:21 61.4 °F /  16.3 °C 52.7 °F /  11.5 °C 29.58in /  1001.6hPa South 29.9mph /  48.1km/h 29.9mph /  48.1km/h 73% 0.00in /  0mm 0.0 W/m2
20:22 61.4 °F /  16.3 °C 53.0 °F /  11.7 °C 29.58in /  1001.6hPa SSW 23.0mph /  37km/h 23.0mph /  37km/h 74% 0.00in /  0mm 0.0 W/m2
20:27 61.4 °F /  16.3 °C 52.7 °F /  11.5 °C 29.58in /  1001.6hPa SW 20.7mph /  33.3km/h 20.7mph /  33.3km/h 73% 0.00in /  0mm 0.0 W/m2
20:32 61.4 °F /  16.3 °C 52.7 °F /  11.5 °C 29.58in /  1001.6hPa SSE 16.1mph /  25.9km/h 16.1mph /  25.9km/h 73% 0.00in /  0mm 0.0 W/m2
20:37 61.4 °F /  16.3 °C 53.0 °F /  11.7 °C 29.58in /  1001.6hPa SSW 19.6mph /  31.5km/h 19.6mph /  31.5km/h 74% 0.00in /  0mm 0.0 W/m2
20:42 61.5 °F /  16.4 °C 53.1 °F /  11.7 °C 29.58in /  1001.6hPa SSW 20.7mph /  33.3km/h 20.7mph /  33.3km/h 74% 0.00in /  0mm 0.0 W/m2
20:47 61.4 °F /  16.3 °C 53.0 °F /  11.7 °C 29.58in /  1001.6hPa SSW 23.0mph /  37km/h 23.0mph /  37km/h 74% 0.00in /  0mm 0.0 W/m2
20:52 61.4 °F /  16.3 °C 53.4 °F /  11.9 °C 29.58in /  1001.6hPa South 25.3mph /  40.7km/h 25.3mph /  40.7km/h 75% 0.00in /  0mm 0.0 W/m2
20:57 61.3 °F /  16.3 °C 54.0 °F /  12.2 °C 29.58in /  1001.6hPa South 23.0mph /  37km/h 23.0mph /  37km/h 77% 0.00in /  0mm 0.0 W/m2
21:02 61.1 °F /  16.2 °C 54.2 °F /  12.3 °C 29.58in /  1001.6hPa South 24.2mph /  38.9km/h 24.2mph /  38.9km/h 78% 0.00in /  0mm 0.0 W/m2
21:07 60.9 °F /  16.1 °C 54.3 °F /  12.4 °C 29.58in /  1001.6hPa South 26.5mph /  42.6km/h 26.5mph /  42.6km/h 79% 0.00in /  0mm 0.0 W/m2
21:13 60.7 °F /  15.9 °C 54.5 °F /  12.5 °C 29.58in /  1001.6hPa SSW 24.2mph /  38.9km/h 24.2mph /  38.9km/h 80% 0.00in /  0mm 0.0 W/m2
21:18 60.5 °F /  15.8 °C 54.6 °F /  12.6 °C 29.58in /  1001.6hPa SSW 17.3mph /  27.8km/h 17.3mph /  27.8km/h 81% 0.00in /  0mm 0.0 W/m2
21:20 60.3 °F /  15.7 °C 54.8 °F /  12.7 °C 29.58in /  1001.6hPa SSW 20.0mph /  32.2km/h 20.0mph /  32.2km/h 82% 0.00in /  0mm 0.0 W/m2
21:25 59.4 °F /  15.2 °C 54.9 °F /  12.7 °C 29.57in /  1001.2hPa SSW 19.6mph /  31.5km/h 19.6mph /  31.5km/h 85% 0.00in /  0mm 0.0 W/m2
21:30 59.0 °F /  15 °C 55.1 °F /  12.8 °C 29.57in /  1001.2hPa SSW 20.7mph /  33.3km/h 20.7mph /  33.3km/h 87% 0.00in /  0mm 0.0 W/m2
21:35 58.9 °F /  14.9 °C 55.0 °F /  12.8 °C 29.57in /  1001.2hPa SE 18.4mph /  29.6km/h 18.4mph /  29.6km/h 87% 0.00in /  0mm 0.0 W/m2
21:40 58.8 °F /  14.9 °C 55.3 °F /  12.9 °C 29.56in /  1000.9hPa South 23.0mph /  37km/h 23.0mph /  37km/h 88% 0.00in /  0mm 0.0 W/m2
21:45 58.9 °F /  14.9 °C 55.0 °F /  12.8 °C 29.56in /  1000.9hPa South 19.6mph /  31.5km/h 19.6mph /  31.5km/h 87% 0.00in /  0mm 0.0 W/m2
21:55 59.0 °F /  15 °C 55.1 °F /  12.8 °C 29.56in /  1000.9hPa South 26.5mph /  42.6km/h 26.5mph /  42.6km/h 87% 0.00in /  0mm 0.0 W/m2
22:00 59.1 °F /  15.1 °C 55.2 °F /  12.9 °C 29.56in /  1000.9hPa SSW 17.3mph /  27.8km/h 17.3mph /  27.8km/h 87% 0.00in /  0mm 0.0 W/m2
22:05 59.2 °F /  15.1 °C 55.3 °F /  12.9 °C 29.56in /  1000.9hPa SSW 21.9mph /  35.2km/h 21.9mph /  35.2km/h 87% 0.00in /  0mm 0.0 W/m2
22:10 59.4 °F /  15.2 °C 55.2 °F /  12.9 °C 29.56in /  1000.9hPa South 26.5mph /  42.6km/h 26.5mph /  42.6km/h 86% 0.00in /  0mm 0.0 W/m2
22:15 59.5 °F /  15.3 °C 55.6 °F /  13.1 °C 29.56in /  1000.9hPa South 17.3mph /  27.8km/h 17.3mph /  27.8km/h 87% 0.00in /  0mm 0.0 W/m2
22:20 59.6 °F /  15.3 °C 55.7 °F /  13.2 °C 29.56in /  1000.9hPa SSW 23.0mph /  37km/h 23.0mph /  37km/h 87% 0.00in /  0mm 0.0 W/m2
22:25 59.8 °F /  15.4 °C 55.9 °F /  13.3 °C 29.56in /  1000.9hPa South 26.5mph /  42.6km/h 26.5mph /  42.6km/h 87% 0.00in /  0mm 0.0 W/m2
22:30 59.8 °F /  15.4 °C 55.9 °F /  13.3 °C 29.57in /  1001.2hPa SSW 26.5mph /  42.6km/h 26.5mph /  42.6km/h 87% 0.00in /  0mm 0.0 W/m2
22:35 59.7 °F /  15.4 °C 55.8 °F /  13.2 °C 29.56in /  1000.9hPa SSW 26.5mph /  42.6km/h 26.5mph /  42.6km/h 87% 0.00in /  0mm 0.0 W/m2
22:36 59.7 °F /  15.4 °C 55.8 °F /  13.2 °C 29.56in /  1000.9hPa South 26.5mph /  42.6km/h 26.5mph /  42.6km/h 87% 0.00in /  0mm 0.0 W/m2
22:41 59.7 °F /  15.4 °C 56.1 °F /  13.4 °C 29.57in /  1001.2hPa SW 27.6mph /  44.4km/h 27.6mph /  44.4km/h 88% 0.00in /  0mm 0.0 W/m2
22:46 59.3 °F /  15.2 °C 55.1 °F /  12.8 °C 29.61in /  1002.6hPa WSW 28.8mph /  46.3km/h 28.8mph /  46.3km/h 86% 0.01in /  0.25mm 0.0 W/m2
22:51 55.2 °F /  12.9 °C 48.5 °F /  9.2 °C 29.61in /  1002.6hPa WSW 18.4mph /  29.6km/h 18.4mph /  29.6km/h 78% 0.03in /  0.76mm 0.0 W/m2
22:56 53.1 °F /  11.7 °C 47.7 °F /  8.7 °C 29.61in /  1002.6hPa WNW 21.0mph /  33.8km/h 21.0mph /  33.8km/h 82% 0.03in /  0.76mm 0.0 W/m2
23:01 51.9 °F /  11.1 °C 47.2 °F /  8.4 °C 29.62in /  1002.9hPa WSW 20.7mph /  33.3km/h 20.7mph /  33.3km/h 84% 0.03in /  0.76mm 0.0 W/m2
23:06 51.3 °F /  10.7 °C 46.9 °F /  8.3 °C 29.63in /  1003.3hPa SW 16.1mph /  25.9km/h 16.1mph /  25.9km/h 85% 0.03in /  0.76mm 0.0 W/m2
23:11 50.9 °F /  10.5 °C 46.9 °F /  8.3 °C 29.64in /  1003.6hPa West 16.1mph /  25.9km/h 16.1mph /  25.9km/h 86% 0.03in /  0.76mm 0.0 W/m2
23:16 50.6 °F /  10.3 °C 46.6 °F /  8.1 °C 29.64in /  1003.6hPa WSW 26.5mph /  42.6km/h 26.5mph /  42.6km/h 86% 0.03in /  0.76mm 0.0 W/m2
23:21 50.2 °F /  10.1 °C 46.2 °F /  7.9 °C 29.64in /  1003.6hPa WSW 13.8mph /  22.2km/h 13.8mph /  22.2km/h 86% 0.03in /  0.76mm 0.0 W/m2
23:26 49.9 °F /  9.9 °C 45.9 °F /  7.7 °C 29.65in /  1003.9hPa WSW 20.7mph /  33.3km/h 20.7mph /  33.3km/h 86% 0.03in /  0.76mm 0.0 W/m2
23:31 49.3 °F /  9.6 °C 44.7 °F /  7.1 °C 29.66in /  1004.3hPa WSW 17.3mph /  27.8km/h 17.3mph /  27.8km/h 84% 0.03in /  0.76mm 0.0 W/m2
23:36 48.6 °F /  9.2 °C 43.4 °F /  6.3 °C 29.66in /  1004.3hPa SW 18.4mph /  29.6km/h 18.4mph /  29.6km/h 82% 0.03in /  0.76mm 0.0 W/m2
23:41 48.1 °F /  8.9 °C 41.2 °F /  5.1 °C 29.66in /  1004.3hPa SW 33.4mph /  53.8km/h 33.4mph /  53.8km/h 77% 0.03in /  0.76mm 0.0 W/m2
23:46 47.7 °F /  8.7 °C 40.5 °F /  4.7 °C 29.66in /  1004.3hPa WSW 21.9mph /  35.2km/h 21.9mph /  35.2km/h 76% 0.02in /  0.51mm 0.0 W/m2
23:51 47.3 °F /  8.5 °C 40.5 °F /  4.7 °C 29.67in /  1004.6hPa West 20.7mph /  33.3km/h 20.7mph /  33.3km/h 77% 0.00in /  0mm 0.0 W/m2
23:56 46.9 °F /  8.3 °C 40.4 °F /  4.7 °C 29.67in /  1004.6hPa West 11.5mph /  18.5km/h 11.5mph /  18.5km/h 78% 0.00in /  0mm 0.0 W/m2
Bourbonnais, Illinois, USA
Compliments of Weather Underground - 2 mb